createdAt,value
2018-07-15T00:00:36.465Z,99.20
2018-07-15T00:03:03.650Z,99.31
2018-07-15T00:05:31.196Z,98.71
2018-07-15T00:07:58.560Z,98.52
2018-07-15T00:10:25.665Z,98.91
2018-07-15T00:12:53.089Z,98.89
2018-07-15T00:15:20.214Z,98.95
2018-07-15T00:17:47.381Z,99.14
2018-07-15T00:20:14.497Z,99.50
2018-07-15T00:22:41.819Z,100.00
2018-07-15T00:25:09.603Z,100.00
2018-07-15T00:27:36.988Z,99.60
2018-07-15T00:30:05.023Z,99.99
2018-07-15T00:32:32.197Z,100.00
2018-07-15T00:34:59.332Z,100.00
2018-07-15T00:37:26.454Z,100.00
2018-07-15T00:39:53.625Z,100.00
2018-07-15T00:42:20.859Z,100.00
2018-07-15T00:44:48.007Z,100.00
2018-07-15T00:47:15.154Z,100.00
2018-07-15T00:49:42.697Z,100.00
2018-07-15T00:52:10.094Z,100.00
2018-07-15T00:54:37.233Z,100.00
2018-07-15T00:57:04.410Z,100.00
2018-07-15T00:59:31.541Z,100.00
2018-07-15T01:01:58.924Z,100.00
2018-07-15T01:04:26.100Z,100.00
2018-07-15T01:06:53.261Z,100.00
2018-07-15T01:09:20.407Z,100.00
2018-07-15T01:11:47.599Z,100.00
2018-07-15T01:14:14.745Z,100.00
2018-07-15T01:16:41.877Z,100.00
2018-07-15T01:19:09.532Z,100.00
2018-07-15T01:21:36.987Z,100.00
2018-07-15T01:24:04.297Z,100.00
2018-07-15T01:26:31.512Z,100.00
2018-07-15T01:28:58.745Z,100.00
2018-07-15T01:31:25.887Z,100.00
2018-07-15T01:33:53.333Z,100.00
2018-07-15T01:36:20.461Z,100.00
2018-07-15T01:38:47.634Z,100.00
2018-07-15T01:41:23.694Z,100.00
2018-07-15T01:43:50.855Z,100.00
2018-07-15T01:46:18.124Z,100.00
2018-07-15T01:48:45.785Z,100.00
2018-07-15T01:51:12.960Z,100.00
2018-07-15T01:53:40.092Z,100.00
2018-07-15T01:56:07.287Z,100.00
2018-07-15T01:58:34.786Z,100.00
2018-07-15T02:01:02.065Z,100.00
2018-07-15T02:03:29.358Z,100.00
2018-07-15T02:05:56.507Z,100.00
2018-07-15T02:08:23.625Z,100.00
2018-07-15T02:10:50.833Z,100.00
2018-07-15T02:13:18.195Z,100.00
2018-07-15T02:15:45.460Z,100.00
2018-07-15T02:18:12.697Z,100.00
2018-07-15T02:20:40.075Z,100.00
2018-07-15T02:23:07.341Z,100.00
2018-07-15T02:25:34.649Z,100.00
2018-07-15T02:28:02.125Z,100.00
2018-07-15T02:30:29.422Z,100.00
2018-07-15T02:32:56.754Z,100.00
2018-07-15T02:35:24.028Z,100.00
2018-07-15T02:37:51.256Z,100.00
2018-07-15T02:40:18.507Z,100.00
2018-07-15T02:42:46.073Z,100.00
2018-07-15T02:45:13.333Z,100.00
2018-07-15T02:47:40.579Z,100.00
2018-07-15T02:50:08.128Z,100.00
2018-07-15T02:52:35.409Z,100.00
2018-07-15T02:55:02.725Z,100.00
2018-07-15T02:57:30.335Z,100.00
2018-07-15T02:59:57.603Z,100.00
2018-07-15T03:02:24.877Z,100.00
2018-07-15T03:04:52.183Z,100.00
2018-07-15T03:07:19.515Z,100.00
2018-07-15T03:09:46.773Z,100.00
2018-07-15T03:12:14.188Z,100.00
2018-07-15T03:14:41.452Z,100.00
2018-07-15T03:17:08.730Z,100.00
2018-07-15T03:19:35.998Z,100.00
2018-07-15T03:22:04.784Z,100.00
2018-07-15T03:24:32.080Z,100.00
2018-07-15T03:26:59.322Z,100.00
2018-07-15T03:29:26.611Z,100.00
2018-07-15T03:31:53.995Z,100.00
2018-07-15T03:34:21.293Z,100.00
2018-07-15T03:36:48.582Z,100.00
2018-07-15T03:39:16.253Z,100.00
2018-07-15T03:41:43.523Z,100.00
2018-07-15T03:44:10.862Z,100.00
2018-07-15T03:46:38.128Z,100.00
2018-07-15T03:49:05.460Z,100.00
2018-07-15T03:51:32.730Z,100.00
2018-07-15T03:54:00.033Z,100.00
2018-07-15T03:56:27.389Z,100.00
2018-07-15T03:58:54.776Z,100.00
2018-07-15T04:01:22.025Z,100.00
2018-07-15T04:03:49.395Z,100.00
2018-07-15T04:06:17.220Z,100.00
2018-07-15T04:08:44.701Z,100.00
2018-07-15T04:11:12.121Z,100.00
2018-07-15T04:13:39.473Z,100.00
2018-07-15T04:16:06.862Z,100.00
2018-07-15T04:18:34.111Z,100.00
2018-07-15T04:21:01.389Z,100.00
2018-07-15T04:23:30.459Z,100.00
2018-07-15T04:25:57.820Z,100.00
2018-07-15T04:28:25.400Z,100.00
2018-07-15T04:30:52.618Z,100.00
2018-07-15T04:33:19.999Z,100.00
2018-07-15T04:35:47.279Z,100.00
2018-07-15T04:38:14.797Z,100.00
2018-07-15T04:40:42.047Z,100.00
2018-07-15T04:43:09.531Z,100.00
2018-07-15T04:45:36.847Z,100.00
2018-07-15T04:48:04.575Z,100.00
2018-07-15T04:50:31.837Z,100.00
2018-07-15T04:52:59.087Z,100.00
2018-07-15T04:55:26.337Z,100.00
2018-07-15T04:57:53.595Z,100.00
2018-07-15T05:00:20.863Z,100.00
2018-07-15T05:02:48.087Z,100.00
2018-07-15T05:05:15.940Z,100.00
2018-07-15T05:07:43.247Z,100.00
2018-07-15T05:10:10.486Z,100.00
2018-07-15T05:12:37.860Z,100.00
2018-07-15T05:15:05.215Z,100.00
2018-07-15T05:17:32.455Z,100.00
2018-07-15T05:20:00.084Z,100.00
2018-07-15T05:22:27.347Z,100.00
2018-07-15T05:24:54.644Z,100.00
2018-07-15T05:27:21.925Z,100.00
2018-07-15T05:29:49.221Z,100.00
2018-07-15T05:32:16.759Z,100.00
2018-07-15T05:34:43.962Z,100.00
2018-07-15T05:37:11.172Z,100.00
2018-07-15T05:39:38.399Z,100.00
2018-07-15T05:42:05.575Z,100.00
2018-07-15T05:44:32.738Z,100.00
2018-07-15T05:46:59.950Z,100.00
2018-07-15T05:49:27.151Z,100.00
2018-07-15T05:51:54.404Z,100.00
2018-07-15T05:54:21.570Z,100.00
2018-07-15T05:56:48.789Z,100.00
2018-07-15T05:59:15.936Z,99.47
2018-07-15T06:01:43.056Z,99.62
2018-07-15T06:04:10.315Z,99.91
2018-07-15T06:06:37.474Z,98.37
2018-07-15T06:09:05.845Z,98.21
2018-07-15T06:11:33.014Z,98.10
2018-07-15T06:14:00.244Z,98.16
2018-07-15T06:16:27.457Z,96.41
2018-07-15T06:18:54.626Z,95.85
2018-07-15T06:21:21.843Z,95.46
2018-07-15T06:23:49.044Z,95.57
2018-07-15T06:26:16.208Z,95.44
2018-07-15T06:28:43.522Z,93.85
2018-07-15T06:31:10.730Z,92.78
2018-07-15T06:33:38.113Z,92.49
2018-07-15T06:36:05.354Z,91.89
2018-07-15T06:38:32.537Z,90.10
2018-07-15T06:40:59.759Z,90.57
2018-07-15T06:43:26.947Z,89.93
2018-07-15T06:45:54.104Z,88.29
2018-07-15T06:48:21.269Z,88.72
2018-07-15T06:50:48.437Z,88.52
2018-07-15T06:53:15.931Z,87.77
2018-07-15T06:55:43.131Z,86.62
2018-07-15T06:58:10.326Z,86.88
2018-07-15T07:00:37.439Z,87.73
2018-07-15T07:03:04.659Z,88.64
2018-07-15T07:05:31.813Z,87.58
2018-07-15T07:07:59.133Z,86.55
2018-07-15T07:10:26.413Z,85.76
2018-07-15T07:12:53.851Z,85.40
2018-07-15T07:15:21.002Z,85.10
2018-07-15T07:17:48.148Z,85.89
2018-07-15T07:20:15.314Z,83.91
2018-07-15T07:22:42.345Z,84.96
2018-07-15T07:25:09.376Z,82.43
2018-07-15T07:27:36.386Z,83.20
2018-07-15T07:30:03.518Z,83.86
2018-07-15T07:32:30.627Z,83.15
2018-07-15T07:34:57.837Z,83.36
2018-07-15T07:37:25.113Z,81.00
2018-07-15T07:39:52.265Z,78.36
2018-07-15T07:42:19.559Z,79.11
2018-07-15T07:44:46.667Z,79.73
2018-07-15T07:47:14.361Z,79.10
2018-07-15T07:49:41.619Z,77.86
2018-07-15T07:52:09.688Z,77.53
2018-07-15T07:54:36.708Z,77.75
2018-07-15T07:57:03.871Z,77.98
2018-07-15T07:59:30.997Z,76.93
2018-07-15T08:01:58.388Z,76.66
2018-07-15T08:04:25.401Z,75.63
2018-07-15T08:06:52.648Z,75.95
2018-07-15T08:09:19.804Z,74.96
2018-07-15T08:11:46.853Z,74.74
2018-07-15T08:14:13.865Z,74.98
2018-07-15T08:16:41.665Z,75.41
2018-07-15T08:19:08.754Z,73.77
2018-07-15T08:21:35.782Z,74.98
2018-07-15T08:24:03.131Z,73.84
2018-07-15T08:26:30.221Z,71.82
2018-07-15T08:28:57.316Z,72.51
2018-07-15T08:31:24.499Z,72.89
2018-07-15T08:33:51.577Z,71.69
2018-07-15T08:36:18.708Z,71.97
2018-07-15T08:38:45.808Z,73.03
2018-07-15T08:41:12.815Z,71.31
2018-07-15T08:43:39.939Z,72.89
2018-07-15T08:46:07.745Z,71.34
2018-07-15T08:48:34.815Z,69.26
2018-07-15T08:51:02.241Z,68.90
2018-07-15T08:53:29.314Z,70.29
2018-07-15T08:55:56.352Z,70.92
2018-07-15T08:58:23.365Z,68.98
2018-07-15T09:00:50.356Z,69.62
2018-07-15T09:03:17.508Z,68.71
2018-07-15T09:05:44.807Z,66.62
2018-07-15T09:08:11.812Z,67.59
2018-07-15T09:10:38.832Z,66.97
2018-07-15T09:13:05.853Z,65.99
2018-07-15T09:15:32.987Z,67.09
2018-07-15T09:18:00.024Z,64.78
2018-07-15T09:20:27.094Z,65.85
2018-07-15T09:22:54.173Z,66.68
2018-07-15T09:25:21.204Z,65.39
2018-07-15T09:27:48.268Z,65.97
2018-07-15T09:30:15.246Z,66.17
2018-07-15T09:32:42.348Z,68.28
2018-07-15T09:35:09.540Z,66.65
2018-07-15T09:37:36.640Z,67.00
2018-07-15T09:48:48.784Z,64.76
2018-07-15T09:51:15.805Z,64.38
2018-07-15T09:53:42.835Z,62.83
2018-07-15T09:56:09.862Z,64.03
2018-07-15T09:58:36.876Z,63.71
2018-07-15T10:01:03.904Z,64.14
2018-07-15T10:03:30.904Z,62.58
2018-07-15T10:05:57.921Z,62.74
2018-07-15T10:08:24.968Z,64.20
2018-07-15T10:10:52.079Z,64.97
2018-07-15T10:21:32.817Z,60.47
2018-07-15T10:23:59.941Z,59.99
2018-07-15T10:26:26.949Z,60.05
2018-07-15T10:28:53.937Z,60.78
2018-07-15T10:31:20.944Z,59.13
2018-07-15T10:33:47.985Z,59.59
2018-07-15T10:36:15.084Z,57.79
2018-07-15T10:38:42.196Z,57.55
2018-07-15T10:41:09.508Z,58.02
2018-07-15T10:43:36.732Z,58.83
2018-07-15T10:46:03.756Z,59.13
2018-07-15T10:48:30.807Z,60.23
2018-07-15T10:50:57.788Z,59.98
2018-07-15T10:53:24.884Z,60.20
2018-07-15T10:55:52.063Z,58.73
2018-07-15T10:58:19.097Z,58.04
2018-07-15T11:00:46.128Z,58.13
2018-07-15T11:03:13.258Z,59.21
2018-07-15T11:05:40.273Z,57.07
2018-07-15T11:08:07.360Z,56.58
2018-07-15T11:10:34.470Z,55.37
2018-07-15T11:13:01.504Z,55.78
2018-07-15T11:15:28.584Z,54.72
2018-07-15T11:17:55.730Z,57.17
2018-07-15T11:20:22.769Z,55.94
2018-07-15T11:22:49.921Z,57.04
2018-07-15T11:25:16.941Z,56.79
2018-07-15T11:27:44.205Z,55.70
2018-07-15T11:30:11.229Z,55.41
2018-07-15T11:32:38.239Z,55.31
2018-07-15T11:35:05.641Z,56.46
2018-07-15T11:37:32.694Z,54.16
2018-07-15T11:39:59.692Z,56.72
2018-07-15T11:42:26.794Z,55.27
2018-07-15T11:44:53.830Z,56.98
2018-07-15T11:47:20.843Z,57.39
2018-07-15T11:49:48.043Z,58.39
2018-07-15T11:52:15.203Z,56.86
2018-07-15T11:54:42.304Z,57.70
2018-07-15T11:57:09.472Z,57.47
2018-07-15T12:00:04.786Z,54.34
2018-07-15T12:02:31.789Z,55.02
2018-07-15T12:04:58.792Z,56.85
2018-07-15T12:07:26.046Z,54.82
2018-07-15T12:09:53.052Z,53.51
2018-07-15T12:12:20.046Z,54.20
2018-07-15T12:14:47.134Z,52.99
2018-07-15T12:17:14.133Z,53.20
2018-07-15T12:19:41.482Z,52.06
2018-07-15T12:22:08.477Z,51.63
2018-07-15T12:24:35.488Z,53.14
2018-07-15T12:27:02.628Z,51.75
2018-07-15T12:29:29.686Z,52.17
2018-07-15T12:31:56.721Z,49.24
2018-07-15T12:34:23.836Z,50.30
2018-07-15T12:36:50.968Z,48.75
2018-07-15T12:39:18.145Z,48.01
2018-07-15T12:41:45.161Z,47.77
2018-07-15T12:44:12.193Z,47.34
2018-07-15T12:46:39.372Z,50.91
2018-07-15T12:49:06.559Z,50.84
2018-07-15T12:51:33.569Z,47.27
2018-07-15T12:54:00.593Z,48.73
2018-07-15T12:56:28.443Z,48.28
2018-07-15T12:58:55.532Z,47.03
2018-07-15T13:01:22.942Z,44.63
2018-07-15T13:03:50.050Z,47.81
2018-07-15T13:06:17.084Z,49.80
2018-07-15T13:08:44.100Z,47.88
2018-07-15T13:11:11.217Z,48.06
2018-07-15T13:13:38.303Z,49.65
2018-07-15T13:16:05.334Z,50.07
2018-07-15T13:18:32.657Z,47.52
2018-07-15T13:20:59.674Z,47.85
2018-07-15T13:23:27.051Z,49.52
2018-07-15T13:25:54.057Z,46.22
2018-07-15T13:28:21.092Z,45.74
2018-07-15T13:30:48.103Z,47.42
2018-07-15T13:33:15.108Z,48.75
2018-07-15T13:35:42.409Z,50.63
2018-07-15T13:38:09.436Z,51.51
2018-07-15T13:40:36.478Z,49.65
2018-07-15T13:43:03.756Z,52.62
2018-07-15T13:45:30.781Z,48.18
2018-07-15T13:47:57.793Z,47.71
2018-07-15T13:50:24.839Z,44.83
2018-07-15T13:52:51.854Z,41.65
2018-07-15T13:55:18.952Z,41.22
2018-07-15T13:57:46.072Z,43.10
2018-07-15T14:00:13.202Z,42.99
2018-07-15T14:02:40.316Z,43.27
2018-07-15T14:05:07.512Z,47.03
2018-07-15T14:07:34.509Z,43.48
2018-07-15T14:10:01.673Z,43.32
2018-07-15T14:12:29.034Z,41.77
2018-07-15T14:14:56.079Z,42.51
2018-07-15T14:17:23.122Z,43.12
2018-07-15T14:19:50.139Z,43.84
2018-07-15T14:22:17.184Z,43.52
2018-07-15T14:24:44.215Z,45.81
2018-07-15T14:27:11.618Z,46.35
2018-07-15T14:29:38.617Z,45.85
2018-07-15T14:32:05.657Z,48.04
2018-07-15T14:34:32.742Z,48.40
2018-07-15T14:36:59.841Z,48.47
2018-07-15T14:39:36.378Z,48.97
2018-07-15T14:42:03.952Z,44.36
2018-07-15T14:44:31.032Z,44.55
2018-07-15T14:46:58.049Z,43.58
2018-07-15T14:49:25.081Z,43.30
2018-07-15T14:51:52.534Z,43.05
2018-07-15T14:54:19.577Z,43.48
2018-07-15T14:56:46.613Z,44.19
2018-07-15T14:59:13.622Z,41.53
2018-07-15T15:01:40.745Z,41.87
2018-07-15T15:04:07.916Z,41.41
2018-07-15T15:06:35.063Z,41.14
2018-07-15T15:09:02.238Z,43.47
2018-07-15T15:11:29.378Z,44.00
2018-07-15T15:13:56.423Z,42.47
2018-07-15T15:16:23.502Z,41.28
2018-07-15T15:18:50.524Z,42.13
2018-07-15T15:21:18.259Z,42.37
2018-07-15T15:23:48.831Z,42.22
2018-07-15T15:26:15.899Z,43.58
2018-07-15T15:28:43.785Z,44.70
2018-07-15T15:31:12.217Z,43.86
2018-07-15T15:33:41.539Z,45.06
2018-07-15T15:36:09.233Z,44.98
2018-07-15T15:38:36.995Z,43.55
2018-07-15T15:41:04.874Z,45.69
2018-07-15T15:43:34.114Z,45.17
2018-07-15T15:46:01.143Z,43.91
2018-07-15T15:48:28.897Z,45.41
2018-07-15T15:50:57.259Z,42.83
2018-07-15T15:53:26.678Z,42.79
2018-07-15T15:55:53.781Z,44.24
2018-07-15T15:58:23.273Z,43.62
2018-07-15T16:00:50.340Z,43.48
2018-07-15T16:03:18.589Z,44.96
2018-07-15T16:05:47.100Z,43.38
2018-07-15T16:08:15.584Z,42.52
2018-07-15T16:10:43.308Z,43.05
2018-07-15T16:13:12.198Z,41.51
2018-07-15T16:15:40.706Z,41.73
2018-07-15T16:18:09.067Z,43.58
2018-07-15T16:20:38.976Z,44.52
2018-07-15T16:23:08.331Z,45.96
2018-07-15T16:25:36.689Z,46.29
2018-07-15T16:28:08.220Z,46.98
2018-07-15T16:30:37.427Z,46.70
2018-07-15T16:33:06.933Z,47.53
2018-07-15T16:35:36.355Z,46.93
2018-07-15T16:38:11.368Z,46.87
2018-07-15T16:40:43.378Z,47.18
2018-07-15T16:43:14.622Z,47.63
2018-07-15T16:45:47.026Z,47.80
2018-07-15T16:48:17.028Z,47.33
2018-07-15T16:50:50.632Z,46.85
2018-07-15T16:53:20.169Z,46.60
2018-07-15T16:55:52.727Z,47.77
2018-07-15T16:58:22.560Z,46.83
2018-07-15T17:00:53.532Z,46.84
2018-07-15T17:03:24.171Z,47.21
2018-07-15T17:05:54.120Z,46.57
2018-07-15T17:08:26.390Z,45.79
2018-07-15T17:10:57.006Z,48.16
2018-07-15T17:13:29.588Z,48.50
2018-07-15T17:15:59.215Z,48.48
2018-07-15T17:18:29.918Z,47.43
2018-07-15T17:21:02.331Z,48.33
2018-07-15T17:23:32.807Z,47.53
2018-07-15T17:26:03.753Z,48.67
2018-07-15T17:28:36.917Z,47.25
2018-07-15T17:31:08.248Z,49.18
2018-07-15T17:33:40.252Z,49.14
2018-07-15T17:36:09.812Z,49.43
2018-07-15T17:38:41.659Z,50.30
2018-07-15T17:41:14.391Z,49.45
2018-07-15T17:43:47.121Z,47.92
2018-07-15T17:46:19.931Z,48.52
2018-07-15T17:48:55.676Z,49.21
2018-07-15T17:51:27.511Z,48.71
2018-07-15T17:53:58.934Z,48.40
2018-07-15T17:56:29.770Z,47.46
2018-07-15T17:59:02.194Z,48.49
2018-07-15T18:01:34.770Z,49.62
2018-07-15T18:04:05.042Z,49.60
2018-07-15T18:06:36.059Z,50.55
2018-07-15T18:09:09.975Z,51.40
2018-07-15T18:11:46.677Z,51.24
2018-07-15T18:14:18.090Z,52.59
2018-07-15T18:16:51.058Z,53.09
2018-07-15T18:19:21.540Z,53.40
2018-07-15T18:21:52.056Z,53.46
2018-07-15T18:24:23.863Z,53.87
2018-07-15T18:26:53.550Z,54.06
2018-07-15T18:29:25.462Z,54.60
2018-07-15T18:31:55.947Z,53.83
2018-07-15T18:34:26.941Z,55.51
2018-07-15T18:36:57.837Z,54.68
2018-07-15T18:39:30.126Z,54.47
2018-07-15T18:42:00.533Z,55.47
2018-07-15T18:44:30.226Z,55.90
2018-07-15T18:47:00.541Z,56.69
2018-07-15T18:49:30.149Z,56.55
2018-07-15T18:51:59.561Z,57.30
2018-07-15T18:54:29.267Z,57.36
2018-07-15T18:56:59.528Z,57.00
2018-07-15T18:59:30.115Z,57.67
2018-07-15T19:02:02.307Z,57.35
2018-07-15T19:04:32.040Z,58.16
2018-07-15T19:07:03.848Z,58.33
2018-07-15T19:09:35.398Z,58.94
2018-07-15T19:12:05.372Z,58.99
2018-07-15T19:14:35.079Z,60.39
2018-07-15T19:17:05.780Z,59.86
2018-07-15T19:19:35.424Z,60.64
2018-07-15T19:22:05.619Z,60.48
2018-07-15T19:24:36.217Z,60.60
2018-07-15T19:27:06.417Z,60.57
2018-07-15T19:29:36.913Z,61.16
2018-07-15T19:32:04.441Z,62.05
2018-07-15T19:34:33.952Z,63.63
2018-07-15T19:37:02.930Z,64.84
2018-07-15T19:39:31.728Z,65.18
2018-07-15T19:42:02.005Z,65.27
2018-07-15T19:44:31.254Z,65.41
2018-07-15T19:47:00.354Z,63.98
2018-07-15T19:49:32.103Z,64.55
2018-07-15T19:52:01.449Z,64.68
2018-07-15T19:54:31.055Z,64.38
2018-07-15T19:57:00.144Z,65.43
2018-07-15T19:59:29.260Z,65.05
2018-07-15T20:01:58.794Z,65.13
2018-07-15T20:04:27.859Z,65.41
2018-07-15T20:06:57.370Z,64.71
2018-07-15T20:09:26.726Z,64.64
2018-07-15T20:11:55.744Z,65.19
2018-07-15T20:14:29.392Z,65.54
2018-07-15T20:16:56.778Z,66.01
2018-07-15T20:19:25.822Z,65.50
2018-07-15T20:21:56.513Z,65.60
2018-07-15T20:24:25.955Z,66.57
2018-07-15T20:26:54.875Z,66.49
2018-07-15T20:29:23.840Z,66.77
2018-07-15T20:31:54.506Z,67.05
2018-07-15T20:34:28.718Z,67.97
2018-07-15T20:36:57.883Z,68.23
2018-07-15T20:39:29.998Z,68.21
2018-07-15T20:41:59.980Z,69.94
2018-07-15T20:44:30.155Z,69.90
2018-07-15T20:46:59.331Z,70.39
2018-07-15T20:49:28.326Z,70.82
2018-07-15T20:51:58.588Z,70.21
2018-07-15T20:54:28.134Z,69.35
2018-07-15T20:56:57.300Z,68.91
2018-07-15T20:59:26.532Z,68.53
2018-07-15T21:01:56.061Z,68.34
2018-07-15T21:04:25.410Z,68.44
2018-07-15T21:06:54.453Z,68.64
2018-07-15T21:09:24.538Z,69.18
2018-07-15T21:11:53.660Z,69.41
2018-07-15T21:14:23.117Z,69.20
2018-07-15T21:16:52.463Z,69.13
2018-07-15T21:19:22.890Z,70.28
2018-07-15T21:21:50.113Z,69.32
2018-07-15T21:24:19.359Z,69.54
2018-07-15T21:26:48.396Z,68.62
2018-07-15T21:29:18.596Z,68.78
2018-07-15T21:31:45.821Z,69.19
2018-07-15T21:34:13.169Z,69.40
2018-07-15T21:36:40.153Z,69.54
2018-07-15T21:39:08.528Z,69.61
2018-07-15T21:41:35.565Z,70.06
2018-07-15T21:44:02.672Z,70.95
2018-07-15T21:46:29.679Z,70.35
2018-07-15T21:48:56.696Z,70.65
2018-07-15T21:51:23.715Z,70.25
2018-07-15T21:53:50.748Z,71.22
2018-07-15T21:56:17.837Z,70.50
2018-07-15T21:58:45.892Z,71.37
2018-07-15T22:01:12.920Z,71.70
2018-07-15T22:03:39.956Z,71.03
2018-07-15T22:06:17.290Z,71.29
2018-07-15T22:08:55.784Z,71.63
2018-07-15T22:11:22.908Z,72.56
2018-07-15T22:13:49.925Z,72.40
2018-07-15T22:16:17.361Z,72.68
2018-07-15T22:18:44.624Z,73.51
2018-07-15T22:21:11.736Z,74.82
2018-07-15T22:23:38.788Z,72.89
2018-07-15T22:26:05.844Z,72.75
2018-07-15T22:28:33.281Z,73.49
2018-07-15T22:31:00.493Z,72.97
2018-07-15T22:33:27.948Z,73.73
2018-07-15T22:35:55.046Z,74.33
2018-07-15T22:38:22.176Z,73.37
2018-07-15T22:40:49.201Z,75.43
2018-07-15T22:43:16.281Z,74.38
2018-07-15T22:45:43.317Z,75.53
2018-07-15T22:48:11.233Z,73.99
2018-07-15T22:50:38.592Z,75.36
2018-07-15T22:53:05.697Z,76.04
2018-07-15T22:55:32.713Z,76.94
2018-07-15T22:57:59.734Z,76.52
2018-07-15T23:00:26.728Z,77.01
2018-07-15T23:02:53.777Z,76.64
2018-07-15T23:05:36.932Z,78.55
2018-07-15T23:08:04.632Z,79.04
2018-07-15T23:10:31.715Z,79.51
2018-07-15T23:12:58.737Z,79.80
2018-07-15T23:15:25.866Z,79.82
2018-07-15T23:17:52.925Z,79.13
2018-07-15T23:20:19.957Z,79.83
2018-07-15T23:22:47.396Z,80.45
2018-07-15T23:25:14.400Z,79.66
2018-07-15T23:27:41.405Z,79.45
2018-07-15T23:30:08.440Z,79.17
2018-07-15T23:32:35.532Z,80.80
2018-07-15T23:35:02.631Z,80.64
2018-07-15T23:37:30.066Z,80.78
2018-07-15T23:39:57.117Z,81.55
2018-07-15T23:42:24.125Z,81.65
2018-07-15T23:44:51.238Z,82.31
2018-07-15T23:47:18.317Z,81.82
2018-07-15T23:49:45.408Z,83.29
2018-07-15T23:52:12.781Z,83.46
2018-07-15T23:54:39.808Z,83.51
2018-07-15T23:57:07.618Z,83.20
2018-07-15T23:59:34.626Z,83.82
